createdAt,value
2022-11-14T00:00:50.432Z,11.73
2022-11-14T00:10:52.289Z,14.27
2022-11-14T00:20:54.061Z,15.17
2022-11-14T00:30:55.363Z,14.77
2022-11-14T00:40:56.694Z,13.33
2022-11-14T00:50:58.076Z,15.20
2022-11-14T01:00:59.649Z,15.68
2022-11-14T01:11:01.090Z,13.27
2022-11-14T01:21:06.470Z,14.63
2022-11-14T01:31:12.233Z,15.87
2022-11-14T01:41:15.856Z,19.52
2022-11-14T01:51:31.409Z,19.40
2022-11-14T02:01:35.894Z,16.20
2022-11-14T02:11:42.212Z,17.48
2022-11-14T02:21:43.570Z,18.30
2022-11-14T02:31:44.904Z,17.97
2022-11-14T02:41:46.297Z,18.70
2022-11-14T02:51:47.638Z,18.38
2022-11-14T03:01:49.045Z,18.97
2022-11-14T03:11:50.389Z,19.13
2022-11-14T03:21:51.889Z,20.75
2022-11-14T03:31:53.350Z,22.00
2022-11-14T03:41:54.671Z,16.77
2022-11-14T03:51:55.996Z,20.15
2022-11-14T04:01:57.319Z,20.17
2022-11-14T04:11:58.663Z,20.23
2022-11-14T04:22:00.024Z,18.98
2022-11-14T04:32:01.367Z,14.63
2022-11-14T04:42:02.714Z,23.33
2022-11-14T04:52:04.230Z,21.80
2022-11-14T05:02:05.587Z,20.40
2022-11-14T05:12:07.025Z,18.73
2022-11-14T05:22:08.356Z,18.10
2022-11-14T05:32:13.699Z,21.60
2022-11-14T05:42:17.517Z,22.07
2022-11-14T05:52:18.849Z,25.20
2022-11-14T06:02:20.331Z,19.05
2022-11-14T06:12:21.656Z,26.60
2022-11-14T06:22:23.055Z,21.37
2022-11-14T06:32:24.391Z,21.40
2022-11-14T06:42:25.708Z,26.00
2022-11-14T06:52:27.255Z,18.87
2022-11-14T07:02:28.589Z,24.33
2022-11-14T07:12:29.974Z,26.27
2022-11-14T07:22:31.327Z,23.77
2022-11-14T07:32:32.703Z,24.03
2022-11-14T07:42:34.063Z,18.80
2022-11-14T07:52:35.454Z,24.08
2022-11-14T08:02:36.818Z,28.70
2022-11-14T08:12:39.368Z,37.27
2022-11-14T08:22:40.680Z,29.70
2022-11-14T08:32:41.991Z,23.37
2022-11-14T08:42:43.344Z,22.47
2022-11-14T08:52:50.915Z,20.05
2022-11-14T09:02:52.368Z,23.27
2022-11-14T09:13:00.128Z,18.47
2022-11-14T09:23:02.373Z,21.60
2022-11-14T09:33:11.121Z,21.65
2022-11-14T09:43:50.746Z,20.47
2022-11-14T09:53:56.075Z,23.53
2022-11-14T10:04:09.664Z,25.08
2022-11-14T10:14:37.931Z,25.93
2022-11-14T10:24:51.353Z,26.77
2022-11-14T10:35:01.627Z,27.15
2022-11-14T10:45:10.691Z,21.97
2022-11-14T10:55:17.609Z,20.70
2022-11-14T11:05:22.263Z,22.38
2022-11-14T11:15:30.253Z,18.85
2022-11-14T11:25:33.513Z,15.43
2022-11-14T11:35:35.405Z,14.27
2022-11-14T11:45:37.776Z,14.50
2022-11-14T11:56:01.052Z,14.60
2022-11-14T12:06:13.874Z,13.27
2022-11-14T12:16:25.828Z,14.50
2022-11-14T12:27:06.423Z,17.40
2022-11-14T12:37:14.955Z,24.90
2022-11-14T12:47:22.165Z,18.85
2022-11-14T12:57:47.665Z,16.02
2022-11-14T13:07:56.408Z,12.67
2022-11-14T13:18:31.809Z,14.13
2022-11-14T13:28:35.972Z,13.20
2022-11-14T13:38:59.952Z,15.63
2022-11-14T13:49:19.998Z,12.37
2022-11-14T13:59:49.191Z,13.93
2022-11-14T14:10:29.866Z,14.67
2022-11-14T14:20:33.906Z,16.23
2022-11-14T14:30:35.294Z,19.77
2022-11-14T14:40:40.067Z,18.63
2022-11-14T14:50:48.049Z,20.73
2022-11-14T15:01:20.419Z,17.80
2022-11-14T15:11:22.465Z,16.10
2022-11-14T15:21:29.505Z,17.63
2022-11-14T15:31:30.923Z,20.10
2022-11-14T15:41:33.503Z,20.92
2022-11-14T15:51:48.291Z,22.13
2022-11-14T16:01:54.916Z,22.10
2022-11-14T16:11:56.419Z,21.20
2022-11-14T16:22:02.859Z,21.20
2022-11-14T16:32:04.563Z,20.67
2022-11-14T16:42:07.155Z,22.33
2022-11-14T16:52:10.734Z,19.83
2022-11-14T17:02:15.485Z,23.37
2022-11-14T17:12:16.873Z,25.20
2022-11-14T17:22:19.681Z,23.42
2022-11-14T17:32:20.998Z,27.63
2022-11-14T17:42:22.399Z,23.43
2022-11-14T17:52:23.744Z,19.50
2022-11-14T18:02:25.105Z,22.48
2022-11-14T18:12:26.476Z,21.77
2022-11-14T18:22:28.362Z,21.00
2022-11-14T18:32:29.761Z,21.02
2022-11-14T18:42:31.088Z,18.53
2022-11-14T18:52:32.501Z,18.97
2022-11-14T19:02:33.952Z,19.63
2022-11-14T19:12:35.375Z,17.80
2022-11-14T19:22:36.689Z,18.53
2022-11-14T19:32:38.026Z,17.90
2022-11-14T19:42:39.387Z,16.50
2022-11-14T19:52:40.707Z,18.77
2022-11-14T20:02:45.867Z,18.20
2022-11-14T20:12:47.205Z,18.00
2022-11-14T20:22:48.624Z,21.53
2022-11-14T20:32:49.961Z,14.97
2022-11-14T20:42:51.329Z,17.98
2022-11-14T20:52:52.678Z,17.40
2022-11-14T21:02:54.777Z,18.80
2022-11-14T21:13:22.263Z,15.80
2022-11-14T21:23:23.608Z,19.83
2022-11-14T21:33:29.543Z,17.17
2022-11-14T21:43:31.871Z,17.47
2022-11-14T21:53:34.738Z,17.95
2022-11-14T22:03:55.672Z,16.80
2022-11-14T22:13:58.120Z,17.00
2022-11-14T22:23:59.596Z,16.38
2022-11-14T22:34:00.988Z,16.20
2022-11-14T22:44:02.380Z,15.27
2022-11-14T22:54:03.879Z,15.82
2022-11-14T23:04:05.370Z,14.30
2022-11-14T23:14:06.777Z,14.87
2022-11-14T23:24:13.510Z,14.33
2022-11-14T23:34:14.847Z,16.00
2022-11-14T23:44:16.215Z,15.10
2022-11-14T23:54:17.547Z,15.10
